Time;durP1;ratioP1;P1;durP2;ratioP2;P2;SDS_P1;SDS_P2;PMS_P1;PMS_P2;Temp;Humidity;BMP_temperature;BMP_pressure;BME280_temperature;BME280_humidity;BME280_pressure;Samples;Min_cycle;Max_cycle;Signal;HPM_P1;HPM_P2
2022/01/18 00:00:27;;;;;;;;;;;;;;;22.97;33.71;100697.94;104279;1313;75723;-81
2022/01/18 00:02:53;;;;;;;;;;;;;;;22.97;33.58;100711.20;104277;1313;61620;-83
2022/01/18 00:05:26;;;;;;;;;;;;;;;22.97;33.78;100712.81;104298;1313;60200;-86
2022/01/18 00:08:01;;;;;;;;;;;;;;;22.97;33.77;100711.41;104258;1313;72744;-85
2022/01/18 00:10:29;;;;;;;;;;;;;;;22.97;33.77;100721.80;104278;1313;75785;-83
2022/01/18 00:13:22;;;;;;;;;;;;;;;;;;;;;
2022/01/18 00:18:31;;;;;;;;;;;;;;;22.97;33.67;100784.02;104289;1315;74094;-82
2022/01/18 00:23:30;;;;;;;;;;;;;;;22.98;33.64;100800.34;104291;1313;61504;-82
2022/01/18 00:25:57;;;;;;;;;;;;;;;22.98;33.70;100807.99;104307;1313;61680;-83
2022/01/18 00:28:24;;;;;;;;;;;;;;;22.98;33.67;100816.45;104296;1313;72696;-82
2022/01/18 00:33:44;;;;;;;;;;;;;;;22.98;33.82;100823.46;104273;1313;61348;-84
2022/01/18 00:36:23;;;;;;;;;;;;;;;22.98;33.65;100843.02;104279;1313;61038;-82
2022/01/18 00:38:48;;;;;;;;;;;;;;;22.98;33.77;100853.40;104300;1313;72759;-82
2022/01/18 00:41:25;;;;;;;;;;;;;;;22.98;33.67;100854.84;104302;1313;75091;-82
2022/01/18 00:43:50;;;;;;;;;;;;;;;22.98;33.78;100867.77;104283;1314;62917;-81
2022/01/18 00:46:23;;;;;;;;;;;;;;;22.98;33.70;100868.30;104264;1313;61237;-82
2022/01/18 00:49:00;;;;;;;;;;;;;;;22.98;33.73;100867.59;104267;1313;74041;-83
2022/01/18 00:51:39;;;;;;;;;;;;;;;22.98;33.71;100872.80;104274;1313;74837;-84
2022/01/18 00:54:32;;;;;;;;;;;;;;;22.98;33.69;100879.45;104298;1313;61404;-81
2022/01/18 00:56:58;;;;;;;;;;;;;;;22.98;33.68;100882.50;104318;1313;61301;-82
2022/01/18 00:59:39;;;;;;;;;;;;;;;22.99;33.81;100888.02;104278;1313;72901;-83
2022/01/18 01:02:05;;;;;;;;;;;;;;;22.98;33.58;100890.73;104282;1313;74648;-82
2022/01/18 01:04:36;;;;;;;;;;;;;;;22.98;33.75;100893.95;104299;1313;61384;-90
2022/01/18 01:07:13;;;;;;;;;;;;;;;22.99;33.63;100894.12;104257;1313;61389;-87
2022/01/18 01:09:38;;;;;;;;;;;;;;;22.99;33.64;100904.19;104241;1313;73734;-83
2022/01/18 01:12:14;;;;;;;;;;;;;;;22.99;33.67;100918.52;104283;1313;61434;-81
2022/01/18 01:14:53;;;;;;;;;;;;;;;22.98;33.54;100927.52;104259;1313;61243;-83
2022/01/18 01:17:42;;;;;;;;;;;;;;;22.99;33.60;100931.27;104274;1313;61176;-84
2022/01/18 01:35:03;;;;;;;;;;;;;;;;;;;;;
2022/01/18 01:46:08;;;;;;;;;;;;;;;22.99;33.63;100970.73;104377;1312;73543;-82
2022/01/18 01:48:33;;;;;;;;;;;;;;;22.99;33.58;100977.53;104362;1311;61360;-82
2022/01/18 01:51:04;;;;;;;;;;;;;;;22.99;33.67;100986.86;104476;1312;61201;-87
2022/01/18 01:53:33;;;;;;;;;;;;;;;23.00;33.56;101002.27;104328;1311;71760;-85
2022/01/18 01:56:01;;;;;;;;;;;;;;;22.99;33.70;101009.84;104423;1312;74836;-83
2022/01/18 01:58:36;;;;;;;;;;;;;;;22.99;33.54;101018.79;104354;1311;61256;-82
2022/01/18 02:01:03;;;;;;;;;;;;;;;23.00;33.56;101016.57;104495;1311;61474;-83
2022/01/18 02:03:28;;;;;;;;;;;;;;;23.00;33.54;101014.59;104405;1312;61736;-79
2022/01/18 02:05:54;;;;;;;;;;;;;;;23.00;33.49;101013.21;104323;1311;61255;-87
2022/01/18 02:08:19;;;;;;;;;;;;;;;23.00;33.50;101017.33;104475;1312;61303;-82
2022/01/18 02:11:16;;;;;;;;;;;;;;;23.00;33.47;101021.98;104403;1312;61262;-81
2022/01/18 02:13:41;;;;;;;;;;;;;;;23.00;33.49;101023.98;104279;1312;73786;-82
2022/01/18 02:21:48;;;;;;;;;;;;;;;22.99;33.53;101046.97;104722;1306;61227;-83
2022/01/18 02:24:14;;;;;;;;;;;;;;;23.00;33.42;101051.41;104551;1308;73768;-82
2022/01/18 02:26:42;;;;;;;;;;;;;;;23.00;33.61;101059.70;104563;1306;61305;-83
2022/01/18 02:29:08;;;;;;;;;;;;;;;22.99;33.51;101057.92;104446;1308;61290;-82
2022/01/18 02:31:37;;;;;;;;;;;;;;;22.99;33.47;101062.42;104599;1306;61188;-83
2022/01/18 02:34:03;;;;;;;;;;;;;;;23.00;33.57;101070.30;104427;1309;61258;-82
2022/01/18 02:36:30;;;;;;;;;;;;;;;23.00;33.34;101081.58;104594;1308;61802;-82
2022/01/18 02:38:58;;;;;;;;;;;;;;;23.00;33.54;101089.31;104661;1306;61147;-83
2022/01/18 02:41:28;;;;;;;;;;;;;;;23.00;33.39;101087.33;104584;1307;61166;-83
2022/01/18 02:43:58;;;;;;;;;;;;;;;22.99;33.48;101083.58;104577;1306;73123;-81
2022/01/18 02:46:24;;;;;;;;;;;;;;;23.00;33.47;101078.55;104477;1309;74943;-87
2022/01/18 02:48:50;;;;;;;;;;;;;;;22.99;33.34;101086.27;104599;1309;61208;-84
2022/01/18 02:51:16;;;;;;;;;;;;;;;23.00;33.41;101096.34;104567;1306;61403;-82
2022/01/18 02:54:11;;;;;;;;;;;;;;;22.99;33.58;101097.05;104542;1306;61282;-80
2022/01/18 02:56:40;;;;;;;;;;;;;;;23.00;33.61;101097.21;104220;1313;74758;-83
2022/01/18 02:59:32;;;;;;;;;;;;;;;22.99;33.61;101096.90;104304;1313;61232;-83
2022/01/18 03:04:48;;;;;;;;;;;;;;;22.99;33.57;101079.48;104236;1314;73763;-81
2022/01/18 03:07:13;;;;;;;;;;;;;;;23.00;33.51;101077.83;104235;1314;76181;-84
2022/01/18 03:09:41;;;;;;;;;;;;;;;23.00;33.62;101088.75;104267;1313;61443;-84
2022/01/18 03:12:08;;;;;;;;;;;;;;;23.00;33.62;101100.08;104226;1314;61557;-86
2022/01/18 03:14:38;;;;;;;;;;;;;;;23.00;33.63;101110.29;104268;1313;61250;-84
2022/01/18 03:17:15;;;;;;;;;;;;;;;23.00;33.60;101109.55;104288;1313;75094;-82
2022/01/18 03:19:41;;;;;;;;;;;;;;;23.00;33.56;101108.29;104320;1313;61438;-81
2022/01/18 03:22:15;;;;;;;;;;;;;;;23.01;33.48;101111.48;104284;1313;61537;-81
2022/01/18 03:24:56;;;;;;;;;;;;;;;23.01;33.60;101121.91;104290;1313;72747;-84
2022/01/18 03:30:10;;;;;;;;;;;;;;;23.01;33.62;101143.63;104319;1313;61291;-84
2022/01/18 03:32:55;;;;;;;;;;;;;;;23.00;33.40;101158.54;104223;1313;61456;-83
2022/01/18 03:35:23;;;;;;;;;;;;;;;23.01;33.55;101164.09;104406;1310;72884;-83
2022/01/18 03:37:51;;;;;;;;;;;;;;;23.01;33.35;101173.95;104349;1310;75734;-79
2022/01/18 03:40:16;;;;;;;;;;;;;;;23.01;33.60;101180.92;104348;1310;61415;-82
2022/01/18 03:42:51;;;;;;;;;;;;;;;23.01;33.54;101180.05;104344;1310;61281;-83
2022/01/18 03:45:18;;;;;;;;;;;;;;;23.01;33.71;101178.60;104401;1311;61392;-83
2022/01/18 03:47:55;;;;;;;;;;;;;;;23.01;33.53;101190.44;104427;1310;61603;-83
2022/01/18 03:50:20;;;;;;;;;;;;;;;23.01;33.53;101203.38;104379;1311;61104;-83
2022/01/18 03:52:46;;;;;;;;;;;;;;;23.01;33.50;101211.46;104389;1311;61375;-83
2022/01/18 03:55:13;;;;;;;;;;;;;;;23.01;33.53;101222.96;104333;1311;61309;-85
2022/01/18 03:57:42;;;;;;;;;;;;;;;23.01;33.71;101233.70;104419;1310;61397;-80
2022/01/18 04:00:10;;;;;;;;;;;;;;;23.01;33.59;101237.80;104359;1310;61689;-82
2022/01/18 04:02:57;;;;;;;;;;;;;;;23.01;33.50;101246.29;104424;1309;61306;-85
2022/01/18 04:05:36;;;;;;;;;;;;;;;;;;;;;
2022/01/18 06:10:06;;;;;;;8.30;3.80;;;;;;;22.00;28.20;101450.95;106217;1288;60225;-78
2022/01/18 06:12:32;;;;;;;22.10;4.90;;;;;;;21.99;27.66;101456.23;105944;1288;60454;-79
2022/01/18 06:14:58;;;;;;;14.10;4.50;;;;;;;21.99;27.48;101452.69;106672;1289;59313;-78
2022/01/18 06:17:24;;;;;;;8.20;4.90;;;;;;;21.99;27.23;101454.10;105725;1290;60155;-78
2022/01/18 06:19:49;;;;;;;15.30;4.40;;;;;;;22.00;27.09;101456.32;105773;1290;59628;-79
2022/01/18 06:22:15;;;;;;;9.70;4.30;;;;;;;22.02;26.91;101459.42;105803;1289;58190;-78
2022/01/18 06:24:40;;;;;;;11.50;4.30;;;;;;;22.05;26.69;101462.09;105738;1289;59826;-78
2022/01/18 06:27:07;;;;;;;9.90;4.40;;;;;;;22.08;26.71;101456.52;105958;1289;59663;-79
2022/01/18 06:29:32;;;;;;;13.40;4.00;;;;;;;22.12;26.81;101456.67;105679;1286;73892;-78
2022/01/18 06:31:58;;;;;;;8.30;4.10;;;;;;;22.16;26.71;101458.55;105606;1287;59810;-78
2022/01/18 06:34:24;;;;;;;7.90;3.90;;;;;;;22.19;26.61;101458.38;105477;1289;59739;-78
2022/01/18 06:36:49;;;;;;;13.50;3.80;;;;;;;22.22;26.42;101456.69;105675;1287;59675;-78
2022/01/18 06:39:16;;;;;;;8.60;4.10;;;;;;;22.25;26.36;101454.70;105643;1287;59669;-79
2022/01/18 06:41:46;;;;;;;9.80;3.70;;;;;;;22.30;26.44;101458.20;107104;1287;72988;-78
2022/01/18 06:44:12;;;;;;;10.50;3.80;;;;;;;22.33;26.60;101463.16;105828;1287;61182;-78
2022/01/18 06:46:38;;;;;;;8.60;3.50;;;;;;;22.37;26.63;101464.90;105747;1288;59661;-79
2022/01/18 06:49:03;;;;;;;8.50;3.90;;;;;;;22.40;27.07;101469.21;105726;1287;59297;-79
2022/01/18 06:51:31;;;;;;;9.70;3.50;;;;;;;22.42;27.00;101473.69;105673;1287;59777;-78
2022/01/18 06:53:57;;;;;;;8.00;3.40;;;;;;;22.46;27.20;101474.73;107161;1286;57523;-78
2022/01/18 06:56:25;;;;;;;9.70;3.70;;;;;;;22.47;27.22;101479.15;106157;1287;59304;-79
2022/01/18 06:58:51;;;;;;;16.60;3.80;;;;;;;22.40;27.45;101475.45;105813;1286;72441;-79
2022/01/18 07:01:16;;;;;;;12.60;3.50;;;;;;;22.30;27.52;101478.06;106050;1286;60887;-79
2022/01/18 07:03:42;;;;;;;15.50;3.80;;;;;;;22.20;27.51;101475.31;105725;1286;59939;-79
2022/01/18 07:06:07;;;;;;;9.40;3.50;;;;;;;22.13;27.24;101476.67;105756;1286;59701;-78
2022/01/18 07:08:33;;;;;;;9.80;3.90;;;;;;;22.10;27.46;101478.30;105839;1286;61186;-78
2022/01/18 07:10:58;;;;;;;11.30;3.90;;;;;;;22.10;27.43;101479.00;105769;1286;73222;-78
2022/01/18 07:13:24;;;;;;;14.60;3.60;;;;;;;22.12;27.18;101484.11;105794;1286;59651;-79
2022/01/18 07:15:50;;;;;;;8.60;3.50;;;;;;;22.15;27.23;101489.65;105801;1285;59634;-78
2022/01/18 07:18:15;;;;;;;10.60;3.20;;;;;;;22.19;27.36;101495.84;105946;1286;59646;-79
2022/01/18 07:20:41;;;;;;;13.40;3.40;;;;;;;22.23;27.18;101498.08;105880;1285;59705;-79
2022/01/18 07:23:11;;;;;;;8.20;2.90;;;;;;;22.28;27.11;101505.66;105804;1286;61411;-78
2022/01/18 07:25:42;;;;;;;11.90;3.60;;;;;;;22.33;27.17;101503.90;107229;1286;74501;-78
2022/01/18 07:28:09;;;;;;;7.70;3.20;;;;;;;22.37;27.15;101502.24;107351;1286;60358;-78
2022/01/18 07:30:36;;;;;;;9.70;3.20;;;;;;;22.41;27.25;101508.95;107088;1285;60256;-78
2022/01/18 07:33:02;;;;;;;9.70;3.00;;;;;;;22.45;27.38;101513.88;107269;1286;72522;-79
2022/01/18 07:35:28;;;;;;;28.10;3.40;;;;;;;22.51;27.58;101516.04;105874;1286;59641;-78
2022/01/18 07:37:53;;;;;;;12.10;2.80;;;;;;;22.58;28.20;101517.17;105810;1286;59580;-78
2022/01/18 07:40:19;;;;;;;10.50;2.80;;;;;;;22.63;28.50;101512.89;105911;1286;59846;-79
2022/01/18 07:42:44;;;;;;;13.00;3.30;;;;;;;22.67;28.46;101511.02;105797;1286;59793;-79
2022/01/18 07:45:10;;;;;;;7.90;3.30;;;;;;;22.69;28.52;101513.18;105890;1286;59791;-79
2022/01/18 07:47:35;;;;;;;13.10;3.30;;;;;;;22.71;28.50;101510.03;105727;1286;74417;-78
2022/01/18 07:50:01;;;;;;;7.10;2.80;;;;;;;22.70;28.33;101510.07;105811;1286;59624;-78
2022/01/18 07:52:26;;;;;;;10.60;3.00;;;;;;;22.67;28.14;101512.81;105768;1286;59775;-78
2022/01/18 07:54:52;;;;;;;8.90;3.40;;;;;;;22.60;27.96;101513.22;105937;1285;61841;-78
2022/01/18 07:57:19;;;;;;;12.70;3.10;;;;;;;22.48;27.45;101518.67;105551;1286;59753;-78
2022/01/18 07:59:45;;;;;;;11.00;3.50;;;;;;;22.39;27.27;101515.55;105785;1286;73142;-78
2022/01/18 08:02:11;;;;;;;9.50;3.20;;;;;;;22.31;27.56;101518.91;105649;1286;59942;-78
2022/01/18 08:04:36;;;;;;;11.50;3.10;;;;;;;22.22;27.42;101516.97;105774;1286;59691;-79
2022/01/18 08:07:02;;;;;;;13.50;3.80;;;;;;;22.16;27.80;101520.94;105764;1287;60180;-77
2022/01/18 08:09:28;;;;;;;10.10;2.90;;;;;;;22.11;27.62;101519.67;105687;1286;59657;-79
2022/01/18 08:11:53;;;;;;;7.20;3.00;;;;;;;22.07;27.74;101526.38;105784;1286;59631;-79
2022/01/18 08:14:19;;;;;;;12.70;3.40;;;;;;;22.03;27.93;101527.52;105828;1286;59653;-78
2022/01/18 08:16:48;;;;;;;10.40;3.30;;;;;;;22.00;28.01;101530.39;105873;1286;59621;-79
2022/01/18 08:19:15;;;;;;;9.10;3.00;;;;;;;21.98;27.89;101531.58;106492;1285;73207;-79
2022/01/18 08:21:40;;;;;;;10.30;3.10;;;;;;;21.97;28.03;101534.70;106116;1285;59564;-77
2022/01/18 08:24:06;;;;;;;11.00;3.30;;;;;;;21.97;27.96;101537.77;106076;1286;59678;-78
2022/01/18 08:26:31;;;;;;;16.10;3.70;;;;;;;21.98;27.78;101539.84;106170;1286;59786;-79
2022/01/18 08:28:58;;;;;;;20.50;4.00;;;;;;;22.02;27.74;101549.05;106233;1286;59858;-78
2022/01/18 08:31:23;;;;;;;18.10;4.20;;;;;;;22.05;27.56;101553.74;106276;1285;61872;-79
2022/01/18 08:33:49;;;;;;;17.00;4.40;;;;;;;22.07;27.70;101554.85;105981;1286;59669;-79
2022/01/18 08:36:15;;;;;;;14.10;3.60;;;;;;;22.10;27.71;101560.23;105867;1286;59731;-79
2022/01/18 08:38:40;;;;;;;17.60;3.60;;;;;;;22.13;27.78;101566.67;106010;1286;59740;-77
2022/01/18 08:41:06;;;;;;;15.60;3.50;;;;;;;22.16;27.47;101569.86;106245;1285;59750;-81
2022/01/18 08:43:33;;;;;;;12.50;3.30;;;;;;;22.18;27.56;101570.46;107073;1287;57641;-78
2022/01/18 08:45:59;;;;;;;10.00;3.10;;;;;;;22.20;27.62;101578.55;107214;1286;57814;-78
2022/01/18 08:48:25;;;;;;;9.90;3.10;;;;;;;22.23;27.36;101572.84;106092;1286;61575;-78
2022/01/18 08:50:50;;;;;;;8.50;2.90;;;;;;;22.25;27.48;101575.54;105795;1286;60394;-78
2022/01/18 08:53:16;;;;;;;9.90;2.90;;;;;;;22.27;27.54;101576.90;105922;1286;59742;-80
2022/01/18 08:55:42;;;;;;;10.30;3.00;;;;;;;22.21;27.36;101575.64;105851;1286;74120;-79
2022/01/18 08:58:08;;;;;;;14.80;3.60;;;;;;;22.14;27.49;101572.31;105877;1286;61723;-78
2022/01/18 09:00:34;;;;;;;13.00;3.30;;;;;;;22.08;27.43;101569.98;105921;1286;59708;-78
2022/01/18 09:03:00;;;;;;;14.40;3.80;;;;;;;22.04;27.36;101571.02;106024;1286;59949;-79
2022/01/18 09:05:26;;;;;;;16.40;4.20;;;;;;;21.99;27.14;101574.70;106525;1286;59442;-79
2022/01/18 09:07:52;;;;;;;14.10;3.70;;;;;;;21.96;27.22;101572.56;106047;1286;61121;-79
2022/01/18 09:10:19;;;;;;;11.50;3.30;;;;;;;21.93;27.10;101574.20;105879;1286;59621;-78
2022/01/18 09:12:44;;;;;;;13.00;3.60;;;;;;;21.92;26.70;101575.69;107369;1286;58029;-78
2022/01/18 09:15:11;;;;;;;10.50;3.30;;;;;;;21.93;26.80;101572.55;107042;1286;59279;-79
2022/01/18 09:17:38;;;;;;;13.60;3.70;;;;;;;21.97;26.81;101573.06;105991;1286;73001;-79
2022/01/18 09:20:06;;;;;;;10.50;3.00;;;;;;;22.01;26.47;101572.44;105994;1286;61138;-78
2022/01/18 09:22:38;;;;;;;10.40;3.30;;;;;;;22.05;26.42;101569.68;106236;1286;60188;-78
2022/01/18 09:25:05;;;;;;;10.50;3.00;;;;;;;22.09;26.31;101576.94;106234;1286;72608;-78
2022/01/18 09:27:31;;;;;;;8.90;3.00;;;;;;;22.13;26.16;101582.27;106102;1286;72893;-78
2022/01/18 09:29:57;;;;;;;8.90;2.90;;;;;;;22.15;25.87;101579.98;105928;1286;59703;-78
2022/01/18 09:32:22;;;;;;;6.40;2.70;;;;;;;22.18;25.79;101576.59;105873;1285;59800;-78
2022/01/18 09:34:50;;;;;;;7.20;2.30;;;;;;;22.20;25.61;101576.06;105838;1286;59659;-78
2022/01/18 09:37:15;;;;;;;4.60;2.20;;;;;;;22.22;25.21;101578.62;106275;1286;59750;-78
2022/01/18 09:39:41;;;;;;;7.80;2.30;;;;;;;22.23;25.04;101569.23;105926;1285;60112;-80
2022/01/18 09:42:07;;;;;;;4.90;2.40;;;;;;;22.25;25.09;101566.77;106007;1286;59738;-79
2022/01/18 09:44:32;;;;;;;8.40;2.60;;;;;;;22.27;24.75;101566.84;105942;1285;59755;-79
2022/01/18 09:46:58;;;;;;;6.20;2.10;;;;;;;22.28;24.45;101567.33;105904;1286;73602;-79
2022/01/18 09:49:24;;;;;;;5.10;2.40;;;;;;;22.30;24.53;101574.57;106046;1286;60459;-79
2022/01/18 09:51:50;;;;;;;6.40;2.20;;;;;;;22.28;24.03;101569.65;107228;1285;58344;-80
2022/01/18 09:54:17;;;;;;;12.10;3.00;;;;;;;22.20;24.28;101569.63;106980;1286;58739;-79
2022/01/18 09:59:03;;;;;;;14.60;2.90;;;;;;;22.13;24.87;101567.36;102992;1312;600542;-79
2022/01/18 10:01:29;;;;;;;7.20;2.40;;;;;;;22.03;24.84;101570.85;104559;1315;58075;-79
2022/01/18 10:04:18;;;;;;;10.30;2.40;;;;;;;21.89;24.83;101579.29;104724;1315;58093;-79
2022/01/18 10:06:55;;;;;;;9.80;2.50;;;;;;;21.79;24.71;101582.03;104853;1312;60350;-79
2022/01/18 10:09:21;;;;;;;10.50;2.90;;;;;;;21.77;24.88;101579.48;103669;1312;72622;-78
2022/01/18 10:12:13;;;;;;;7.70;2.60;;;;;;;21.77;24.70;101581.44;103263;1313;201030;-79
2022/01/18 10:14:40;;;;;;;11.20;2.80;;;;;;;21.79;24.82;101577.36;103729;1312;60480;-79
2022/01/18 10:17:06;;;;;;;8.10;2.30;;;;;;;21.80;24.72;101581.63;103661;1312;59181;-78
2022/01/18 10:19:49;;;;;;;12.00;2.80;;;;;;;21.80;24.54;101582.86;103753;1312;59423;-79
2022/01/18 10:22:15;;;;;;;8.10;2.30;;;;;;;21.79;24.83;101584.19;104567;1312;73448;-81
2022/01/18 10:24:43;;;;;;;8.80;2.60;;;;;;;21.79;24.69;101583.30;103573;1311;61557;-79
2022/01/18 10:27:09;;;;;;;9.90;2.70;;;;;;;21.77;24.68;101589.52;103674;1313;60445;-79
2022/01/18 10:29:43;;;;;;;10.90;2.80;;;;;;;21.74;24.65;101591.64;103776;1311;59611;-79
2022/01/18 10:32:20;;;;;;;10.10;2.80;;;;;;;21.73;24.53;101595.52;103748;1312;73132;-80
2022/01/18 10:37:28;;;;;;;12.70;2.30;;;;;;;21.69;24.41;101596.98;103743;1312;60577;-81
2022/01/18 10:39:56;;;;;;;9.30;2.60;;;;;;;21.69;24.30;101596.96;103876;1309;73053;-82
2022/01/18 10:42:31;;;;;;;6.80;2.30;;;;;;;21.71;24.29;101596.29;104044;1310;74248;-80
2022/01/18 10:45:14;;;;;;;10.90;2.40;;;;;;;21.75;24.42;101598.60;103763;1309;60543;-79
2022/01/18 10:48:14;;;;;;;10.10;2.40;;;;;;;21.81;24.48;101593.77;103818;1309;60461;-79
2022/01/18 10:50:42;;;;;;;7.90;2.40;;;;;;;21.86;24.73;101593.81;103363;1309;72452;-79
2022/01/18 10:53:15;;;;;;;9.40;2.50;;;;;;;21.79;24.45;101588.85;105013;1309;74474;-79
2022/01/18 10:55:42;;;;;;;8.00;2.30;;;;;;;21.62;24.37;101590.95;104975;1309;60821;-79
2022/01/18 10:58:20;;;;;;;5.90;2.40;;;;;;;21.51;24.49;101585.50;104997;1310;58937;-79
2022/01/18 11:00:45;;;;;;;8.70;2.80;;;;;;;21.51;24.59;101592.33;105024;1309;73770;-79
2022/01/18 11:03:11;;;;;;;7.90;2.50;;;;;;;21.44;24.30;101597.74;105011;1309;58102;-79
2022/01/18 11:05:38;;;;;;;13.00;2.90;;;;;;;21.42;24.42;101596.25;105106;1311;58143;-79
2022/01/18 11:08:05;;;;;;;11.10;3.00;;;;;;;21.43;24.38;101593.16;103646;1310;59605;-78
2022/01/18 11:10:35;;;;;;;15.90;3.00;;;;;;;21.40;24.24;101591.73;103492;1311;72973;-78
2022/01/18 11:13:04;;;;;;;15.10;2.80;;;;;;;21.40;24.32;101595.66;103535;1309;73135;-79
2022/01/18 11:15:35;;;;;;;;;;;;;;;21.45;24.58;101599.50;103541;1309;60311;-78
2022/01/18 11:18:05;;;;;;;9.00;2.80;;;;;;;21.47;24.58;101605.48;103604;1311;60605;-80
2022/01/18 11:20:33;;;;;;;11.00;3.20;;;;;;;21.52;24.30;101609.09;103599;1310;72908;-79
2022/01/18 11:22:59;;;;;;;10.30;3.40;;;;;;;21.56;24.24;101611.57;103683;1309;74941;-79
2022/01/18 11:25:29;;;;;;;10.70;3.00;;;;;;;21.62;24.26;101614.64;103766;1309;59777;-79
2022/01/18 11:27:56;;;;;;;14.60;2.90;;;;;;;21.68;24.76;101616.60;103665;1310;60548;-79
2022/01/18 11:30:24;;;;;;;7.90;2.60;;;;;;;21.74;24.64;101617.61;103770;1309;73026;-79
2022/01/18 11:32:54;;;;;;;9.00;2.70;;;;;;;21.79;25.38;101611.77;103840;1310;73080;-79
2022/01/18 11:35:22;;;;;;;10.30;3.60;;;;;;;21.85;25.74;101612.14;104546;1309;60261;-81
2022/01/18 11:38:05;;;;;;;12.20;3.10;;;;;;;21.91;26.04;101608.89;103839;1309;60729;-78
2022/01/18 11:40:48;;;;;;;17.70;3.40;;;;;;;21.96;26.13;101606.61;103783;1309;72686;-79
2022/01/18 11:43:34;;;;;;;7.80;3.30;;;;;;;22.00;25.80;101604.95;103748;1312;74266;-82
2022/01/18 11:46:36;;;;;;;10.40;2.80;;;;;;;21.98;25.77;101602.17;103821;1310;61602;-80
2022/01/18 11:49:07;;;;;;;8.40;2.70;;;;;;;21.95;25.84;101605.23;104076;1309;59672;-78
2022/01/18 11:51:40;;;;;;;9.20;2.80;;;;;;;21.93;25.55;101606.61;103791;1309;72680;-79
2022/01/18 11:54:30;;;;;;;7.20;3.00;;;;;;;21.92;25.59;101607.59;103547;1311;73088;-83
2022/01/18 11:56:55;;;;;;;16.50;3.60;;;;;;;21.87;25.33;101603.38;104421;1311;60216;-79
2022/01/18 11:59:27;;;;;;;8.40;2.80;;;;;;;21.82;24.90;101605.02;103632;1310;59762;-79
2022/01/18 12:01:58;;;;;;;8.30;3.00;;;;;;;21.75;24.82;101605.22;105017;1309;73472;-79
2022/01/18 12:07:12;;;;;;;7.30;3.10;;;;;;;21.56;24.40;101613.35;104620;1309;59281;-78
2022/01/18 12:09:38;;;;;;;7.00;2.70;;;;;;;21.42;23.84;101616.83;104969;1309;60484;-79
2022/01/18 12:12:05;;;;;;;10.90;3.20;;;;;;;21.39;23.82;101617.95;105071;1308;72842;-79
2022/01/18 12:14:34;;;;;;;6.10;2.70;;;;;;;21.40;23.80;101617.69;105070;1308;73131;-79
2022/01/18 12:17:13;;;;;;;6.20;2.60;;;;;;;21.42;24.01;101613.81;105069;1309;59902;-79
2022/01/18 12:19:46;;;;;;;7.20;2.90;;;;;;;21.43;24.03;101610.19;105167;1308;60574;-79
2022/01/18 12:22:48;;;;;;;10.80;3.00;;;;;;;21.42;24.07;101601.83;105112;1308;74003;-78
2022/01/18 12:25:27;;;;;;;9.20;2.90;;;;;;;21.43;23.95;101596.56;105029;1309;71977;-78
2022/01/18 12:27:55;;;;;;;9.40;2.90;;;;;;;21.46;23.92;101592.83;104733;1308;61578;-79
2022/01/18 12:33:15;;;;;;;8.40;2.80;;;;;;;21.49;24.00;101587.27;105260;1308;73749;-78
2022/01/18 12:35:41;;;;;;;9.20;3.00;;;;;;;21.49;23.82;101581.36;105171;1308;73221;-78
2022/01/18 12:38:10;;;;;;;7.40;3.30;;;;;;;21.51;23.82;101581.40;105090;1309;57940;-78
2022/01/18 12:40:42;;;;;;;8.00;3.00;;;;;;;21.51;23.68;101581.58;104996;1309;60518;-78
2022/01/18 12:45:36;;;;;;;7.80;3.20;;;;;;;21.51;23.39;101585.70;105008;1309;58255;-78
2022/01/18 12:48:10;;;;;;;8.60;3.50;;;;;;;21.42;23.00;101588.54;104985;1308;60690;-78
2022/01/18 12:50:39;;;;;;;8.40;3.00;;;;;;;21.38;22.97;101588.96;105072;1309;62029;-79
2022/01/18 12:53:05;;;;;;;;;;;;;;;21.35;22.76;101591.32;105123;1309;72583;-78
2022/01/18 12:55:57;;;;;;;6.50;2.70;;;;;;;21.31;23.02;101589.05;105187;1308;58074;-78
2022/01/18 12:58:43;;;;;;;10.80;3.20;;;;;;;21.35;23.07;101583.27;104818;1312;60392;-79
2022/01/18 13:01:14;;;;;;;8.50;2.90;;;;;;;21.31;22.64;101585.83;104226;1319;60867;-80
2022/01/18 13:03:41;;;;;;;13.10;2.80;;;;;;;21.26;22.46;101589.33;103942;1320;73989;-80
2022/01/18 13:06:30;;;;;;;7.90;2.80;;;;;;;21.24;22.27;101586.95;104232;1318;73153;-79
2022/01/18 13:09:03;;;;;;;8.50;3.40;;;;;;;21.20;22.19;101582.73;104287;1319;60172;-79
2022/01/18 13:11:34;;;;;;;8.80;2.80;;;;;;;21.17;21.96;101578.60;104235;1319;61915;-80
2022/01/18 13:14:07;;;;;;;6.40;2.80;;;;;;;21.16;21.75;101582.74;104132;1320;73991;-80
2022/01/18 13:27:43;;;;;;;12.40;3.00;;;;;;;21.24;22.16;101596.94;103116;1319;73204;-79
2022/01/18 13:30:22;;;;;;;10.20;2.40;;;;;;;21.33;23.03;101598.80;102638;1328;61403;-81
2022/01/18 13:32:48;;;;;;;11.90;2.70;;;;;;;21.38;23.35;101597.41;102181;1326;60491;-80
2022/01/18 13:35:15;;;;;;;7.50;2.90;;;;;;;21.41;23.31;101592.20;102273;1323;59702;-81
2022/01/18 13:37:51;;;;;;;10.80;2.90;;;;;;;21.44;23.36;101594.34;102624;1320;73819;-84
2022/01/18 13:40:22;;;;;;;21.70;3.50;;;;;;;21.47;23.04;101597.06;103530;1317;61376;-79
2022/01/18 13:43:05;;;;;;;19.00;3.10;;;;;;;21.49;23.11;101595.48;103561;1317;59595;-79
2022/01/18 13:45:34;;;;;;;16.90;3.10;;;;;;;21.55;23.21;101603.73;103430;1317;73086;-82
2022/01/18 13:48:12;;;;;;;;;;;;;;;;;;;;;
2022/01/18 13:51:19;;;;;;;18.80;3.30;;;;;;;21.67;23.23;101627.22;103374;1317;61888;-80
2022/01/18 13:54:25;;;;;;;;;;;;;;;;;;;;;
2022/01/18 13:56:54;;;;;;;11.80;2.90;;;;;;;21.72;23.29;101642.14;102901;1322;73809;-80
2022/01/18 13:59:29;;;;;;;14.30;2.70;;;;;;;21.74;23.18;101650.04;102769;1323;73085;-79
2022/01/18 14:02:19;;;;;;;10.70;2.80;;;;;;;21.77;23.16;101656.15;102760;1321;60628;-82
2022/01/18 14:05:04;;;;;;;8.90;2.70;;;;;;;21.81;23.19;101659.14;102814;1322;59569;-80
2022/01/18 14:07:43;;;;;;;11.80;2.50;;;;;;;21.85;23.21;101668.27;103290;1317;72941;-85
2022/01/18 14:10:09;;;;;;;7.20;2.40;;;;;;;21.89;23.55;101673.55;103684;1316;73260;-82
2022/01/18 14:12:43;;;;;;;7.80;2.20;;;;;;;21.92;23.46;101676.56;103637;1316;59783;-81
2022/01/18 14:15:41;;;;;;;5.30;2.30;;;;;;;21.95;23.54;101676.23;103687;1316;61333;-80
2022/01/18 14:18:15;;;;;;;6.20;2.20;;;;;;;21.98;23.83;101682.52;103731;1317;71524;-80
2022/01/18 14:20:54;;;;;;;;;;;;;;;;;;;;;
2022/01/18 14:23:32;;;;;;;9.00;2.50;;;;;;;22.03;24.10;101685.61;103910;1316;60802;-81
2022/01/18 14:26:19;;;;;;;6.00;2.50;;;;;;;22.04;24.15;101686.23;103585;1314;60428;-79
2022/01/18 14:29:05;;;;;;;6.70;2.40;;;;;;;22.06;24.35;101689.14;103125;1320;72785;-80
2022/01/18 14:31:39;;;;;;;3.90;2.00;;;;;;;22.06;24.34;101697.23;103079;1320;74120;-83
2022/01/18 14:34:13;;;;;;;8.70;2.20;;;;;;;22.06;24.22;101698.83;103400;1314;60991;-81
2022/01/18 14:37:02;;;;;;;4.80;2.30;;;;;;;22.08;24.39;101696.23;103521;1314;61553;-80
2022/01/18 14:39:47;;;;;;;4.30;2.20;;;;;;;22.10;24.49;101699.31;103874;1314;74441;-81
2022/01/18 14:42:16;;;;;;;6.10;2.10;;;;;;;22.12;24.48;101698.87;103869;1315;74117;-82
2022/01/18 14:47:57;;;;;;;5.90;2.60;;;;;;;22.14;24.67;101706.95;103962;1316;61691;-81
2022/01/18 14:50:23;;;;;;;4.80;2.20;;;;;;;22.15;24.82;101709.80;104921;1314;73979;-80
2022/01/18 14:52:50;;;;;;;5.30;2.40;;;;;;;22.15;24.76;101711.01;103812;1314;60555;-80
2022/01/18 14:55:19;;;;;;;5.50;2.30;;;;;;;22.17;24.71;101712.72;103536;1316;60804;-80
2022/01/18 14:57:47;;;;;;;4.00;2.00;;;;;;;22.18;24.77;101713.16;103580;1314;60738;-81
2022/01/18 15:00:33;;;;;;;4.60;2.20;;;;;;;22.20;24.69;101718.81;103877;1314;73075;-81
2022/01/18 15:03:07;;;;;;;5.00;1.90;;;;;;;22.20;24.99;101716.81;104068;1314;74162;-81
2022/01/18 15:05:32;;;;;;;6.00;2.40;;;;;;;22.21;25.00;101718.34;103997;1314;60569;-80
2022/01/18 15:08:08;;;;;;;;;;;;;;;;;;;;;
2022/01/18 15:11:07;;;;;;;5.30;2.20;;;;;;;22.23;24.95;101717.38;104170;1314;72823;-82